Home > Products > Valid Products > TAF

000
FTUS43 KDMX 241811 AAA
TAFMCW
TAF AMD
KMCW 241811Z 2418/2518 17009KT 1 1/2SM BR VCSH OVC002
     FM242300 25009KT P6SM SCT020 BKN120
     FM250400 29009KT P6SM SCT200
     FM251100 32009KT P6SM SKC=



000
FTUS43 KDMX 241742
TAFDSM
TAF
KDSM 241742Z 2418/2518 20012KT 4SM BR OVC006
     FM242300 25006KT 5SM BR BKN025 BKN120
     FM250100 28006KT P6SM SCT200
     FM250500 31005KT P6SM SCT250
     FM251400 35007KT P6SM SKC=



000
FTUS43 KDMX 241742
TAFOTM
TAF
KOTM 241742Z 2418/2518 17010KT 6SM BR OVC005
     FM242200 20010KT 5SM BR SCT005 OVC012
     FM250500 28006KT 6SM BR SCT012 BKN100
     FM251400 34008KT P6SM SKC=



000
FTUS43 KDMX 241742
TAFALO
TAF
KALO 241742Z 2418/2518 17011KT 2SM BR VCSH OVC003
     FM242300 22006KT 1SM BR OVC012
     FM250400 28008KT 5SM BR SCT025 BKN120
     FM250900 33008KT P6SM SKC=



000
FTUS43 KDMX 241742
TAFMCW
TAF
KMCW 241742Z 2418/2518 17009KT 1/2SM FG VCSH OVC002
     FM242300 25009KT P6SM SCT020 BKN120
     FM250400 29009KT P6SM SCT200
     FM251100 32009KT P6SM SKC=



000
FTUS43 KDMX 241742
TAFFOD
TAF
KFOD 241742Z 2418/2518 24009KT P6SM OVC018
     FM242200 27006KT P6SM SCT018 SCT200
     FM250200 32003KT P6SM SCT250
     FM251300 35003KT P6SM SKC=



000
FTUS43 KDMX 241539 AAA
TAFOTM
TAF AMD
KOTM 241539Z 2416/2512 18009KT 5SM BR OVC005
     FM241700 20010KT P6SM BKN012
     FM242000 22010KT P6SM SCT015 SCT250=



000
FTUS43 KDMX 241539 AAB
TAFDSM
TAF AMD
KDSM 241539Z 2416/2512 18011KT 2SM BR OVC003
     FM241700 18010KT 5SM BR BKN006
     FM241800 23012KT P6SM SCT018 SCT200
     FM250100 23006KT P6SM SCT200
     FM250500 30005KT P6SM SCT250=



000
FTUS43 KDMX 241537 AAA
TAFMCW
TAF AMD
KMCW 241537Z 2416/2512 17011KT 2SM BR BKN040
      TEMPO 2416/2418 1/2SM FG OVC002
     FM241800 17009KT 5SM BR BKN080
     FM242100 22009KT P6SM SCT030
     FM250200 28009KT P6SM SCT180
     FM250600 31007KT P6SM SCT200
      AMD NOT SKED=



000
FTUS43 KDMX 241537 AAA
TAFALO
TAF AMD
KALO 241537Z 2416/2512 16010KT 1/2SM FG OVC002
     FM241700 17011KT P6SM BKN008
     FM242000 19012KT P6SM VCSH SCT012 BKN150
     FM250400 28008KT P6SM SCT200
     FM250600 31007KT P6SM BKN200=



000
FTUS43 KDMX 241535 AAB
TAFFOD
TAF AMD
KFOD 241535Z 2416/2512 20011KT 3SM BR OVC005
     FM241700 25009KT P6SM SCT035 SCT200
     FM242300 28006KT P6SM SCT200
     FM250200 33003KT P6SM SCT250=



000
FTUS43 KDMX 241334 AAA
TAFFOD
TAF AMD
KFOD 241334Z 2414/2512 20009KT 1/2SM FG OVC002
     FM241700 25009KT P6SM SCT035 SCT200
     FM242300 28006KT P6SM SCT200
     FM250200 33003KT P6SM SCT250=



000
FTUS43 KDMX 241237 AAA
TAFDSM
TAF AMD
KDSM 241237Z 2413/2512 19006KT 1/2SM FG VV002
     FM241600 17008KT 1SM BR BKN002
     FM241700 18010KT 5SM BR BKN006
     FM241800 23012KT P6SM SCT018 SCT200
     FM250100 23006KT P6SM SCT200
     FM250500 30005KT P6SM SCT250=



000
FTUS43 KDMX 241140
TAFFOD
TAF
KFOD 241140Z 2412/2512 18006KT P6SM BKN200
     FM241300 20009KT P6SM BKN200
     FM241700 25009KT P6SM SCT035 SCT200
     FM242300 28006KT P6SM SCT200
     FM250200 33003KT P6SM SCT250=



000
FTUS43 KDMX 241140
TAFMCW
TAF
KMCW 241140Z 2412/2512 15005KT 3SM BR BKN150
     FM241500 17008KT 5SM BR SCT040 BKN150
     FM241700 17009KT 5SM BR BKN080
     FM242100 22009KT P6SM SCT030
     FM250200 28009KT P6SM SCT180
     FM250600 31007KT P6SM SCT200
      AMD NOT SKED=



000
FTUS43 KDMX 241140
TAFALO
TAF
KALO 241140Z 2412/2512 15003KT 1/4SM FG VV002
     FM241600 16010KT 2SM BR BKN003
     FM241700 17011KT P6SM BKN008
     FM242000 19012KT P6SM VCSH SCT012 BKN150
     FM250400 28008KT P6SM SCT200
     FM250600 31007KT P6SM BKN200=



000
FTUS43 KDMX 241140
TAFOTM
TAF
KOTM 241140Z 2412/2512 19004KT 1/4SM FG VV002
     FM241500 18005KT 2SM BR BKN004
     FM241700 20010KT P6SM BKN012
     FM242000 22010KT P6SM SCT015 SCT250=



000
FTUS43 KDMX 241140
TAFDSM
TAF
KDSM 241140Z 2412/2512 19006KT 1/4SM FG VV001
     FM241600 17008KT 1SM BR BKN002
     FM241700 18010KT 5SM BR BKN006
     FM241800 23012KT P6SM SCT018 SCT200
     FM250100 23006KT P6SM SCT200
     FM250500 30005KT P6SM SCT250=



000
FTUS43 KDMX 240903 AAB
TAFMCW
TAF AMD
KMCW 240903Z 2409/2506 18005KT 1/4SM FG VV001
     FM241500 17008KT 3SM BR SCT001 BKN018
     FM241700 17009KT 5SM BR SCT005 BKN025
     FM242100 22009KT P6SM SCT030
     FM250200 28009KT P6SM SCT180
      AMD NOT SKED=



000
FTUS43 KDMX 240704 AAA
TAFMCW
TAF AMD
KMCW 240704Z 2407/2506 18007KT 3SM BR SCT002
     FM240900 18006KT 1SM BR BKN002
     FM241400 17008KT P6SM SCT005 BKN018
     FM242100 22009KT P6SM SCT030
     FM250200 28009KT P6SM SCT180=



000
FTUS43 KDMX 240703 AAB
TAFDSM
TAF AMD
KDSM 240703Z 2407/2506 17007KT 1/4SM FG VV001
     FM241300 17008KT 1/2SM FG BKN002
     FM241400 18010KT 4SM BR BKN006
     FM241600 23012KT P6SM SCT018 SCT200
     FM250100 28008KT P6SM SCT200=



000
FTUS43 KDMX 240524 AAA
TAFDSM
TAF AMD
KDSM 240524Z 2405/2506 17007KT 1/4SM FG VV002
     FM241300 17008KT 1/2SM FG BKN002
     FM241400 18010KT 4SM BR BKN006
     FM241600 23012KT P6SM SCT018 SCT200
     FM250100 28008KT P6SM SCT200=



000
FTUS43 KDMX 240520
TAFMCW
TAF
KMCW 240520Z 2406/2506 18007KT 2SM BR SCT002
     FM240700 18006KT 3/4SM BR BKN002
     FM241400 17008KT P6SM SCT005 BKN018
     FM242100 22009KT P6SM SCT030
     FM250200 28009KT P6SM SCT180=



000
FTUS43 KDMX 240520
TAFALO
TAF
KALO 240520Z 2406/2506 14002KT 1/4SM FG VV002
     FM241500 16010KT 2SM BR BKN003
     FM241700 17011KT P6SM BKN008
     FM242000 19012KT P6SM SCT012
     FM250400 28008KT P6SM SCT200=



000
FTUS43 KDMX 240520
TAFOTM
TAF
KOTM 240520Z 2406/2506 19004KT 1/4SM FG VV002
     FM241500 18005KT 2SM BR BKN004
     FM241700 20010KT P6SM BKN012
     FM242000 22010KT P6SM SCT015 SCT250=



000
FTUS43 KDMX 240520
TAFDSM
TAF
KDSM 240520Z 2406/2506 17007KT 2SM BR SCT004
     FM240700 17005KT 1/2SM FG BKN002
     FM241400 18010KT 4SM BR BKN006
     FM241600 23012KT P6SM SCT018 SCT200
     FM250100 28008KT P6SM SCT200=



000
FTUS43 KDMX 240520
TAFFOD
TAF
KFOD 240520Z 2406/2506 18003KT P6SM BKN200
     FM241300 20009KT P6SM BKN025
     FM241700 25009KT P6SM SCT030 SCT200
     FM242300 28008KT P6SM SCT200=



000
FTUS43 KDMX 240502 AAB
TAFOTM
TAF AMD
KOTM 240502Z 2405/2424 21004KT 1/4SM FG VV002
     FM241300 18003KT 1SM BR BKN003
     FM241500 18009KT P6SM BKN022=



000
FTUS43 KDMX 240502 AAB
TAFOTM
TAF AMD
KOTM 240502Z 2405/2424 21004KT 1/4SM FG VV002
     FM241300 18003KT 1SM BR BKN003
     FM241500 18009KT P6SM BKN022=



000
FTUS43 KDMX 240501 AAA
TAFDSM
TAF AMD
KDSM 240501Z 2405/2424 16006KT 1/2SM FG VV001
     FM241500 18010KT P6SM SCT001 SCT025
     FM241900 24013KT P6SM SCT028=



000
FTUS43 KDMX 240501 AAA
TAFDSM
TAF AMD
KDSM 240501Z 2405/2424 16006KT 1/2SM FG VV001
     FM241500 18010KT P6SM SCT001 SCT025
     FM241900 24013KT P6SM SCT028=



000
FTUS43 KDMX 240419 AAA
TAFMCW
TAF AMD
KMCW 240419Z 2404/2424 18006KT 2SM BR SCT002
     FM240600 17003KT 1/2SM FG BKN002
     FM241500 17011KT P6SM BKN025
     FM242100 22009KT P6SM SCT030=



000
FTUS43 KDMX 240221 AAA
TAFOTM
TAF AMD
KOTM 240221Z 2402/2424 21004KT 1/4SM FG SCT003
     FM241300 18003KT 1SM BR BKN003
     FM241500 18009KT P6SM BKN022=



000
FTUS43 KDMX 240221 AAA
TAFOTM
TAF AMD
KOTM 240221Z 2402/2424 21004KT 1/4SM FG SCT003
     FM241300 18003KT 1SM BR BKN003
     FM241500 18009KT P6SM BKN022=



000
FTUS43 KDMX 240033 AAA
TAFALO
TAF AMD
KALO 240033Z 2401/2424 VRB03KT 2SM BR SCT002
      TEMPO 2401/2404 1/2SM FG BKN002
     FM240400 16002KT 1SM BR BKN002
     FM241500 16010KT P6SM SCT002
     FM241800 18012KT P6SM BKN025=



000
FTUS43 KDMX 232320
TAFFOD
TAF
KFOD 232320Z 2400/2424 18005KT P6SM SKC
     FM240600 18003KT 3SM BR SCT003
     FM241500 20009KT P6SM BKN025
     FM241900 25009KT P6SM SCT030=



000
FTUS43 KDMX 232320
TAFDSM
TAF
KDSM 232320Z 2400/2424 22004KT P6SM SKC
     FM240800 17003KT 4SM BR SKC
     FM241500 18010KT P6SM SCT025
     FM241900 24013KT P6SM SCT028=



000
FTUS43 KDMX 232320
TAFMCW
TAF
KMCW 232320Z 2400/2424 23006KT P6SM SKC
     FM240600 19004KT 3SM BR SCT003
     FM240900 17003KT 1SM BR BKN003
     FM241500 17011KT P6SM BKN025
     FM242100 22009KT P6SM SCT030=



000
FTUS43 KDMX 232320
TAFALO
TAF
KALO 232320Z 2400/2424 20003KT P6SM SKC
     FM240600 18002KT 3SM BR SCT003
     FM240900 16002KT 1SM BR BKN002
     FM241500 16010KT P6SM SCT002
     FM241800 18012KT P6SM BKN025=



000
FTUS43 KDMX 232320
TAFOTM
TAF
KOTM 232320Z 2400/2424 23004KT P6SM SCT012
     FM240400 19004KT 3SM BR SCT003
     FM240900 18003KT 1SM BR BKN003
     FM241500 18009KT P6SM BKN022=



000
FTUS43 KDMX 232211 AAD
TAFALO
TAF AMD
KALO 232211Z 2322/2418 VRB05KT P6SM SCT010
     FM240000 19003KT P6SM SKC
     FM240600 18002KT 3SM BR SCT003
     FM240900 16002KT 1SM BR BKN002
     FM241500 16010KT P6SM SCT002=



000
FTUS43 KDMX 232118 AAB
TAFOTM
TAF AMD
KOTM 232118Z 2321/2418 29005KT P6SM BKN015
     FM240000 23004KT P6SM SKC
     FM240600 19004KT 3SM BR SCT003
     FM240900 18003KT 1SM BR BKN003
     FM241500 17007KT P6SM BKN025=



000
FTUS43 KDMX 232117 AAB
TAFDSM
TAF AMD
KDSM 232117Z 2321/2418 33004KT P6SM SCT035
     FM240000 18004KT P6SM SKC
     FM240800 17003KT 4SM BR SKC
     FM241500 17010KT P6SM SCT025=



000
FTUS43 KDMX 232115 AAB
TAFMCW
TAF AMD
KMCW 232115Z 2321/2418 26007KT P6SM SKC
     FM240000 20005KT P6SM SKC
     FM240600 19004KT 3SM BR SCT003
     FM240900 17003KT 1SM BR BKN003
     FM241500 16010KT P6SM BKN025=



000
FTUS43 KDMX 232114 AAA
TAFFOD
TAF AMD
KFOD 232114Z 2321/2418 VRB04KT P6SM SKC
     FM240000 18005KT P6SM SKC
     FM240600 17003KT 3SM BR SCT003
     FM241500 20009KT P6SM BKN025=



000
FTUS43 KDMX 232112 AAC
TAFALO
TAF AMD
KALO 232112Z 2321/2418 VRB06KT P6SM SCT007
      TEMPO 2321/2323 BKN008
     FM240000 19003KT P6SM SKC
     FM240600 18002KT 3SM BR SCT003
     FM240900 16002KT 1SM BR BKN002
     FM241500 16010KT P6SM SCT002=



000
FTUS43 KDMX 231911 AAA
TAFOTM
TAF AMD
KOTM 231911Z 2319/2418 22011KT P6SM SCT025 BKN035
      TEMPO 2319/2321 BKN025
     FM232100 23006KT P6SM SKC=



000
FTUS43 KDMX 231911 AAA
TAFOTM
TAF AMD
KOTM 231911Z 2319/2418 22011KT P6SM SCT025 BKN035
      TEMPO 2319/2321 BKN025
     FM232100 23006KT P6SM SKC=



000
FTUS43 KDMX 231910 AAB
TAFALO
TAF AMD
KALO 231910Z 2319/2418 20007KT P6SM SCT005 BKN015
      TEMPO 2319/2320 BKN006
     FM232000 24006KT P6SM SKC
     FM240000 19003KT P6SM SKC=



000
FTUS43 KDMX 231910 AAB
TAFALO
TAF AMD
KALO 231910Z 2319/2418 20007KT P6SM SCT005 BKN015
      TEMPO 2319/2320 BKN006
     FM232000 24006KT P6SM SKC
     FM240000 19003KT P6SM SKC=



000
FTUS43 KDMX 231802 AAA
TAFDSM
TAF AMD
KDSM 231802Z 2318/2418 29006KT P6SM SCT007 BKN029
     FM231900 28006KT P6SM SKC
     FM240000 18004KT P6SM SKC=



000
FTUS43 KDMX 231802 AAA
TAFALO
TAF AMD
KALO 231802Z 2318/2418 20007KT P6SM SCT005 BKN015
      TEMPO 2318/2319 BKN005
     FM231900 24006KT P6SM SKC
     FM240000 19003KT P6SM SKC=



000
FTUS43 KDMX 231802 AAA
TAFALO
TAF AMD
KALO 231802Z 2318/2418 20007KT P6SM SCT005 BKN015
      TEMPO 2318/2319 BKN005
     FM231900 24006KT P6SM SKC
     FM240000 19003KT P6SM SKC=



000
FTUS43 KDMX 231802 AAA
TAFDSM
TAF AMD
KDSM 231802Z 2318/2418 29006KT P6SM SCT007 BKN029
     FM231900 28006KT P6SM SKC
     FM240000 18004KT P6SM SKC=



000
FTUS43 KDMX 231801 AAA
TAFMCW
TAF AMD
KMCW 231801Z 2318/2418 30006KT P6SM SCT005 BKN019
      TEMPO 2318/2319 SCT015
     FM231900 28007KT P6SM SKC
     FM240000 18005KT P6SM SKC=



000
FTUS43 KDMX 231801 AAA
TAFMCW
TAF AMD
KMCW 231801Z 2318/2418 30006KT P6SM SCT005 BKN019
      TEMPO 2318/2319 SCT015
     FM231900 28007KT P6SM SKC
     FM240000 18005KT P6SM SKC=



000
FTUS43 KDMX 231723 CCA
TAFOTM
TAF COR
KOTM 231723Z 2318/2418 22011KT P6SM SCT025 BKN035
      TEMPO 2318/2319 BKN025
     FM232000 23006KT P6SM FEW035
     FM232200 21004KT P6SM SKC=



000
FTUS43 KDMX 231720
TAFMCW
TAF
KMCW 231720Z 2318/2418 25006KT P6SM SCT005 BKN019
      TEMPO 2318/2319 SCT015
     FM231900 26007KT P6SM SKC
     FM240000 18005KT P6SM SKC=



000
FTUS43 KDMX 231720
TAFALO
TAF
KALO 231720Z 2318/2418 20007KT P6SM SCT008 BKN015
      TEMPO 2318/2319 4SM BR BKN008
     FM231900 24006KT P6SM SKC
     FM240000 19003KT P6SM SKC=



000
FTUS43 KDMX 231720
TAFOTM
TAF
KOTM 231720Z 2318/2418 20008KT P6SM BKN035
     FM232000 23006KT P6SM FEW035
     FM232200 21004KT P6SM SKC=



000
FTUS43 KDMX 231720
TAFFOD
TAF
KFOD 231720Z 2318/2418 28006KT P6SM SKC
     FM240000 18005KT P6SM SKC=



000
FTUS43 KDMX 231720
TAFDSM
TAF
KDSM 231720Z 2318/2418 29006KT P6SM SCT007 BKN019
     FM231900 28006KT P6SM SKC
     FM240000 18004KT P6SM SKC=



000
FTUS43 KDMX 231656 AAC
TAFDSM
TAF AMD
KDSM 231656Z 2317/2412 22007KT P6SM SCT007 BKN015
      TEMPO 2317/2318 SCT003 BKN006
     FM231900 28006KT P6SM SKC
     FM232300 23004KT P6SM SKC=



000
FTUS43 KDMX 231656 AAC
TAFDSM
TAF AMD
KDSM 231656Z 2317/2412 22007KT P6SM SCT007 BKN015
      TEMPO 2317/2318 SCT003 BKN006
     FM231900 28006KT P6SM SKC
     FM232300 23004KT P6SM SKC=



000
FTUS43 KDMX 231613 AAB
TAFFOD
TAF AMD
KFOD 231613Z 2316/2412 30006KT P6SM SCT009 SCT014
      TEMPO 2316/2317 BKN009 OVC014
     FM231700 28006KT P6SM SKC
     FM232300 18005KT P6SM SKC=



000
FTUS43 KDMX 231525 AAA
TAFOTM
TAF AMD
KOTM 231525Z 2315/2412 21008KT P6SM SCT025 BKN040
     FM232000 24006KT P6SM FEW035
     FM240200 23004KT P6SM SKC=



000
FTUS43 KDMX 231524 AAB
TAFDSM
TAF AMD
KDSM 231524Z 2315/2412 22007KT P6SM SCT007 BKN015
      TEMPO 2315/2317 SCT003 BKN007
     FM231700 28006KT P6SM SKC
     FM232300 23004KT P6SM SKC=



000
FTUS43 KDMX 231523 AAB
TAFMCW
TAF AMD
KMCW 231523Z 2315/2412 17009KT 2SM BR OVC003
      TEMPO 2315/2316 1SM BR OVC002
     FM231600 21006KT 3SM BR BKN005 BKN020
      TEMPO 2316/2318 P6SM NSW SCT005 BKN015
     FM231800 26007KT P6SM SCT035
     FM232300 22005KT P6SM SKC=



000
FTUS43 KDMX 231458 AAB
TAFALO
TAF AMD
KALO 231458Z 2315/2412 18006KT P6SM BKN014
      TEMPO 2315/2317 3SM BR BKN005
     FM231700 22007KT P6SM SCT008 BKN025
     FM231900 24006KT P6SM SKC
     FM232300 21003KT P6SM SKC=



000
FTUS43 KDMX 231458 AAB
TAFALO
TAF AMD
KALO 231458Z 2315/2412 18006KT P6SM BKN014
      TEMPO 2315/2317 3SM BR BKN005
     FM231700 22007KT P6SM SCT008 BKN025
     FM231900 24006KT P6SM SKC
     FM232300 21003KT P6SM SKC=



000
FTUS43 KDMX 231348 AAA
TAFFOD
TAF AMD
KFOD 231348Z 2314/2412 23006KT 3SM BR OVC005
      TEMPO 2314/2316 2SM BR OVC003
     FM231600 28006KT P6SM SCT005 BKN030
     FM231700 28006KT P6SM SCT035
     FM232300 18005KT P6SM SKC=



000
FTUS43 KDMX 231322 AAA
TAFDSM
TAF AMD
KDSM 231322Z 2313/2412 22007KT P6SM SCT008 BKN025
      TEMPO 2313/2315 SCT003 BKN011
     FM231800 27006KT P6SM SCT035
     FM232300 23004KT P6SM SKC=



000
FTUS43 KDMX 231321 AAA
TAFALO
TAF AMD
KALO 231321Z 2313/2412 16008KT 4SM RA BR BKN020 OVC050
     FM231500 19004KT 3SM BR BKN011
      TEMPO 2315/2317 1SM BR BKN005
     FM231700 22007KT P6SM SCT008 BKN025
     FM231900 24006KT P6SM SKC
     FM232300 21003KT P6SM SKC=



000
FTUS43 KDMX 231319 AAA
TAFMCW
TAF AMD
KMCW 231319Z 2313/2412 17009KT 2SM BR OVC003
      TEMPO 2313/2315 1SM BR
     FM231600 21006KT P6SM BKN005 BKN020
     FM231800 26007KT P6SM SCT035
     FM232300 22005KT P6SM SKC=



000
FTUS43 KDMX 231128
TAFFOD
TAF
KFOD 231128Z 2312/2412 21004KT 6SM BR OVC005
     FM231300 26006KT 3SM BR OVC005
     FM231600 28006KT P6SM SCT005 BKN030
     FM231700 28006KT P6SM SCT035
     FM232300 18005KT P6SM SKC=



000
FTUS43 KDMX 231128
TAFDSM
TAF
KDSM 231128Z 2312/2412 16008KT 6SM -SHRA BR SCT025 OVC050
     FM231300 23007KT P6SM SCT008 BKN025
     FM231800 27006KT P6SM SCT035
     FM232300 23004KT P6SM SKC=



000
FTUS43 KDMX 231128
TAFOTM
TAF
KOTM 231128Z 2312/2412 16009KT P6SM BKN045 OVC060
     FM231500 15007KT 5SM -SHRA BR SCT015 OVC035
     FM231600 23008KT P6SM SCT008 BKN025
     FM232000 24006KT P6SM FEW035
     FM240200 23004KT P6SM SKC=



000
FTUS43 KDMX 231128
TAFMCW
TAF
KMCW 231128Z 2312/2412 21006KT 6SM -RA BR BKN008 BKN020
     FM231300 21006KT 6SM -RA BR BKN005 BKN020
     FM231700 22007KT 5SM BR SCT010 BKN030
     FM231800 26007KT P6SM SCT035
     FM232300 22005KT P6SM SKC=



000
FTUS43 KDMX 231128
TAFALO
TAF
KALO 231128Z 2312/2412 16008KT 3SM RA BR BKN014 OVC050
     FM231400 19004KT 3SM BR VCSH BKN005 OVC025
     FM231700 22007KT P6SM SCT008 BKN025
     FM231900 24006KT P6SM SKC
     FM232300 21003KT P6SM SKC=



000
FTUS43 KDMX 231035 AAC
TAFMCW
TAF AMD
KMCW 231035Z 2311/2406 15007KT 1 1/2SM RA BR OVC018
     FM231200 21008KT 4SM BR BKN012
     FM231500 26007KT P6SM SKC
     FM232300 22005KT P6SM SKC=



000
FTUS43 KDMX 231015 AAB
TAFMCW
TAF AMD
KMCW 231015Z 2310/2406 15007KT 6SM -SHRA BR OVC018
     FM231200 21008KT 4SM BR BKN012
     FM231500 26007KT P6SM SKC
     FM232300 22005KT P6SM SKC=



000
FTUS43 KDMX 231014 AAA
TAFOTM
TAF AMD
KOTM 231014Z 2310/2406 15011KT P6SM SCT050 BKN180
     FM231100 17007KT 5SM -SHRA BR SCT015 OVC035
     FM231600 23008KT P6SM SCT008 BKN025
     FM232000 24006KT P6SM SKC=



000
FTUS43 KDMX 231000 AAC
TAFFOD
TAF AMD
KFOD 231000Z 2310/2406 20007KT 5SM -SHRA BR OVC006
     FM231300 26006KT 3SM BR BKN005
     FM231500 28006KT P6SM SCT005 BKN030
     FM231700 28006KT P6SM SCT035
     FM232300 18005KT P6SM SKC=



000
FTUS43 KDMX 231000 AAC
TAFFOD
TAF AMD
KFOD 231000Z 2310/2406 20007KT 5SM -SHRA BR OVC006
     FM231300 26006KT 3SM BR BKN005
     FM231500 28006KT P6SM SCT005 BKN030
     FM231700 28006KT P6SM SCT035
     FM232300 18005KT P6SM SKC=



000
FTUS43 KDMX 230943 AAA
TAFMCW
TAF AMD
KMCW 230943Z 2310/2406 15007KT 6SM -SHRA BR OVC020
     FM231200 21008KT 4SM BR BKN012
     FM231500 26007KT P6SM SKC
     FM232300 22005KT P6SM SKC=



000
FTUS43 KDMX 230943 AAB
TAFFOD
TAF AMD
KFOD 230943Z 2310/2406 17008KT 5SM -SHRA BR SCT018 OVC022
     FM231300 26006KT 5SM BR BKN009
     FM231500 28006KT P6SM SKC
     FM232300 18005KT P6SM SKC=



000
FTUS43 KDMX 230943 AAB
TAFFOD
TAF AMD
KFOD 230943Z 2310/2406 17008KT 5SM -SHRA BR SCT018 OVC022
     FM231300 26006KT 5SM BR BKN009
     FM231500 28006KT P6SM SKC
     FM232300 18005KT P6SM SKC=



000
FTUS43 KDMX 230943 AAA
TAFMCW
TAF AMD
KMCW 230943Z 2310/2406 15007KT 6SM -SHRA BR OVC020
     FM231200 21008KT 4SM BR BKN012
     FM231500 26007KT P6SM SKC
     FM232300 22005KT P6SM SKC=



000
FTUS43 KDMX 230901 AAA
TAFFOD
TAF AMD
KFOD 230901Z 2309/2406 17008KT 6SM -SHRA BR SCT018 OVC035
     FM231300 26006KT 5SM BR BKN009
     FM231500 28006KT P6SM SKC
     FM232300 18005KT P6SM SKC=



000
FTUS43 KDMX 230825 AAA
TAFDSM
TAF AMD
KDSM 230825Z 2308/2406 16008KT 6SM -SHRA BR SCT040 OVC050
     FM231400 23007KT P6SM SCT008 BKN025
     FM231700 26006KT P6SM SKC
     FM232300 20004KT P6SM SKC=



000
FTUS43 KDMX 230824 AAA
TAFALO
TAF AMD
KALO 230824Z 2308/2406 16008KT 6SM -SHRA BR SCT018 OVC035
     FM231500 22007KT P6SM SCT008 BKN025
     FM231900 24006KT P6SM SKC
     FM232300 21003KT P6SM SKC=



000
FTUS43 KDMX 230537
TAFALO
TAF
KALO 230537Z 2306/2406 15011KT P6SM OVC080
     FM230800 16008KT 5SM -SHRA BR SCT018 OVC030
     FM231500 22007KT P6SM SCT008 BKN025
     FM231900 24006KT P6SM SKC
     FM232300 21003KT P6SM SKC=



000
FTUS43 KDMX 230537
TAFOTM
TAF
KOTM 230537Z 2306/2406 15011KT P6SM SCT050 BKN180
     FM231000 17007KT 5SM -SHRA BR SCT015 OVC035
     FM231600 23008KT P6SM SCT008 BKN025
     FM232000 24006KT P6SM SKC=



000
FTUS43 KDMX 230537
TAFMCW
TAF
KMCW 230537Z 2306/2406 17009KT 6SM -SHRA BR OVC040
     FM231200 21008KT 4SM BR BKN012
     FM231500 26007KT P6SM SKC
     FM232300 22005KT P6SM SKC=



000
FTUS43 KDMX 230537
TAFFOD
TAF
KFOD 230537Z 2306/2406 17008KT 6SM -SHRA BR SCT018 OVC040
     FM231000 26006KT 2SM BR BKN009
     FM231500 28006KT P6SM SKC
     FM232300 18005KT P6SM SKC=



000
FTUS43 KDMX 230537
TAFDSM
TAF
KDSM 230537Z 2306/2406 16008KT 4SM -SHRA BR SCT024 OVC040
      TEMPO 2306/2308 -TSRA BKN035CB
     FM231400 23007KT P6SM SCT008 BKN025
     FM231700 26006KT P6SM SKC
     FM232300 20004KT P6SM SKC=



000
FTUS43 KDMX 230523 AAA
TAFDSM
TAF AMD
KDSM 230523Z 2305/2324 16011KT P6SM SCT050 BKN180
     FM230600 16008KT 4SM -SHRA BR SCT015 OVC040
      TEMPO 2306/2307 -TSRA BKN035CB
     FM231400 23007KT P6SM SCT008 BKN025
     FM231800 25006KT P6SM SKC=



000
FTUS43 KDMX 230408 AAA
TAFFOD
TAF AMD
KFOD 230408Z 2304/2324 17008KT 6SM -SHRA BR SCT015 OVC040
     FM231000 26006KT P6SM SCT008 BKN025
     FM231500 28006KT P6SM SKC=



000
FTUS43 KDMX 230131 AAA
TAFOTM
TAF AMD
KOTM 230131Z 2302/2324 15011KT P6SM SCT050 BKN180
     FM231000 17007KT 5SM -SHRA BR SCT015 OVC040
     FM231600 23007KT P6SM SCT008 BKN025
     FM231900 26007KT P6SM SKC=



000
FTUS43 KDMX 230131 AAA
TAFOTM
TAF AMD
KOTM 230131Z 2302/2324 15011KT P6SM SCT050 BKN180
     FM231000 17007KT 5SM -SHRA BR SCT015 OVC040
     FM231600 23007KT P6SM SCT008 BKN025
     FM231900 26007KT P6SM SKC=



000
FTUS43 KDMX 222327
TAFMCW
TAF
KMCW 222327Z 2300/2324 16013KT P6SM SCT060 BKN180
     FM230500 16012KT 4SM -SHRA BR SCT015 OVC040
     FM231100 21008KT P6SM SCT008 BKN025
     FM231600 27008KT P6SM SKC=



000
FTUS43 KDMX 222327
TAFOTM
TAF
KOTM 222327Z 2300/2324 15011KT P6SM SCT050 BKN180
     FM231000 17007KT 5SM -SHRA BR SCT015 OVC040
     FM231600 23007KT P6SM SCT008 BKN025
     FM231900 26007KT P6SM SKC
      AMD NOT SKED=



000
FTUS43 KDMX 222327
TAFDSM
TAF
KDSM 222327Z 2300/2324 15011KT P6SM SCT050 BKN180
     FM230600 16008KT 4SM -SHRA BR SCT015 OVC040
     FM231400 23007KT P6SM SCT008 BKN025
     FM231800 25006KT P6SM SKC=



000
FTUS43 KDMX 222327
TAFALO
TAF
KALO 222327Z 2300/2324 15011KT P6SM SCT050 BKN180
     FM230800 16008KT 5SM -SHRA BR SCT015 OVC040
     FM231500 22007KT P6SM SCT008 BKN025
     FM231900 24006KT P6SM SKC=



000
FTUS43 KDMX 222327
TAFFOD
TAF
KFOD 222327Z 2300/2324 17010KT P6SM SCT060 BKN180
     FM230400 19009KT 4SM -SHRA BR SCT015 OVC040
     FM231000 26006KT P6SM SCT008 BKN025
     FM231500 28006KT P6SM SKC=



000
FTUS43 KDMX 221730
TAFALO
TAF
KALO 221730Z 2218/2318 15013G20KT P6SM SCT070
     FM222300 15011KT P6SM FEW040
     FM230800 17009KT 5SM -SHRA BR SCT015 OVC025
     FM231600 25007KT P6SM FEW020=



000
FTUS43 KDMX 221730
TAFMCW
TAF
KMCW 221730Z 2218/2318 16015G22KT P6SM SCT060
     FM222300 16013KT P6SM FEW035
     FM230500 19010KT 4SM -SHRA BR SCT010 OVC020
     FM231400 26008KT P6SM FEW015=



000
FTUS43 KDMX 221730
TAFOTM
TAF
KOTM 221730Z 2218/2318 14010KT P6SM SCT070
     FM231000 18008KT 5SM -SHRA BR SCT012 OVC022=



000
FTUS43 KDMX 221730
TAFDSM
TAF
KDSM 221730Z 2218/2318 15013G19KT P6SM SCT070
     FM222300 15010KT P6SM FEW040
     FM230600 18008KT 4SM -SHRA BR SCT012 OVC020
     FM231500 26007KT P6SM FEW015=



000
FTUS43 KDMX 221730
TAFFOD
TAF
KFOD 221730Z 2218/2318 17013G19KT P6SM FEW080
     FM222300 17012KT P6SM FEW040
     FM230300 19009KT 4SM -SHRA BR SCT010 OVC020
     FM231300 26006KT P6SM FEW015=



000
FTUS43 KDMX 221730
TAFDSM
TAF
KDSM 221730Z 2218/2318 15013G19KT P6SM SCT070
     FM222300 15010KT P6SM FEW040
     FM230600 18008KT 4SM -SHRA BR SCT012 OVC020
     FM231500 26007KT P6SM FEW015=



000
FTUS43 KDMX 221730
TAFFOD
TAF
KFOD 221730Z 2218/2318 17013G19KT P6SM FEW080
     FM222300 17012KT P6SM FEW040
     FM230300 19009KT 4SM -SHRA BR SCT010 OVC020
     FM231300 26006KT P6SM FEW015=



000
FTUS43 KDMX 221730
TAFALO
TAF
KALO 221730Z 2218/2318 15013G20KT P6SM SCT070
     FM222300 15011KT P6SM FEW040
     FM230800 17009KT 5SM -SHRA BR SCT015 OVC025
     FM231600 25007KT P6SM FEW020=



000
FTUS43 KDMX 221730
TAFOTM
TAF
KOTM 221730Z 2218/2318 14010KT P6SM SCT070
     FM231000 18008KT 5SM -SHRA BR SCT012 OVC022=



000
FTUS43 KDMX 221730
TAFMCW
TAF
KMCW 221730Z 2218/2318 16015G22KT P6SM SCT060
     FM222300 16013KT P6SM FEW035
     FM230500 19010KT 4SM -SHRA BR SCT010 OVC020
     FM231400 26008KT P6SM FEW015=



000
FTUS43 KDMX 221120
TAFMCW
TAF
KMCW 221120Z 2212/2312 15013KT P6SM SCT070
     FM221500 15015KT P6SM VCSH BKN050
     FM221800 16016G21KT P6SM BKN050
     FM230000 16014KT P6SM BKN040
     FM230400 16013KT 6SM -SHRA OVC030
     FM230900 16011KT 4SM -RA BR OVC020=



000
FTUS43 KDMX 221120
TAFALO
TAF
KALO 221120Z 2212/2312 12006KT P6SM SCT070
     FM221500 15013KT P6SM BKN060
     FM221900 16013G21KT P6SM VCSH BKN050
     FM222300 15010KT P6SM BKN040
     FM230600 15010KT 6SM -SHRA OVC030=



000
FTUS43 KDMX 221120
TAFDSM
TAF
KDSM 221120Z 2212/2312 12008KT P6SM BKN060
     FM221400 14011KT P6SM VCSH BKN050
     FM221700 16013G20KT P6SM BKN070 BKN200
     FM230000 15009KT P6SM BKN040
     FM230500 15009KT 6SM -SHRA OVC030
     FM231000 16007KT 5SM -RA BR OVC020=



000
FTUS43 KDMX 221120
TAFFOD
TAF
KFOD 221120Z 2212/2312 15009G14KT P6SM VCSH BKN060
     FM221500 16015G21KT P6SM SCT050 BKN200
     FM230000 17015KT P6SM SCT030 BKN180
     FM230300 17015KT 6SM -SHRA OVC030=



000
FTUS43 KDMX 221120
TAFOTM
TAF
KOTM 221120Z 2212/2312 12009KT P6SM SCT060
     FM221600 15011KT P6SM BKN050
     FM230700 15009KT 6SM -SHRA OVC030=



000
FTUS43 KDMX 220520
TAFMCW
TAF
KMCW 220520Z 2206/2306 14009KT P6SM SKC
     FM221400 15015KT P6SM BKN050
     FM221600 16016G21KT P6SM BKN050
     FM230000 16014KT P6SM BKN040
     FM230400 16013KT 6SM -SHRA OVC030=



000
FTUS43 KDMX 220520
TAFDSM
TAF
KDSM 220520Z 2206/2306 14009KT P6SM SCT050
     FM221000 14011KT P6SM BKN050
     FM230000 15009KT P6SM BKN040
     FM230500 15009KT 6SM -SHRA OVC030=



000
FTUS43 KDMX 220520
TAFOTM
TAF
KOTM 220520Z 2206/2306 12008KT P6SM FEW050
     FM221600 15011KT P6SM BKN050=



000
FTUS43 KDMX 220520
TAFALO
TAF
KALO 220520Z 2206/2306 13008KT P6SM SKC
     FM221500 15013KT P6SM SCT060
     FM221900 16013KT P6SM BKN050
     FM230000 15010KT P6SM BKN040=



000
FTUS43 KDMX 220520
TAFFOD
TAF
KFOD 220520Z 2206/2306 13007KT P6SM SKC
     FM221100 15011KT 6SM BR BKN050
     FM221500 16015G21KT P6SM SCT050 BKN200
     FM230000 17015KT P6SM SCT030 BKN180
     FM230300 17015KT 6SM -SHRA OVC030=



000
FTUS43 KDMX 220520
TAFMCW
TAF
KMCW 220520Z 2206/2306 14009KT P6SM SKC
     FM221400 15015KT P6SM BKN050
     FM221600 16016G21KT P6SM BKN050
     FM230000 16014KT P6SM BKN040
     FM230400 16013KT 6SM -SHRA OVC030=



000
FTUS43 KDMX 220520
TAFOTM
TAF
KOTM 220520Z 2206/2306 12008KT P6SM FEW050
     FM221600 15011KT P6SM BKN050=



000
FTUS43 KDMX 220520
TAFALO
TAF
KALO 220520Z 2206/2306 13008KT P6SM SKC
     FM221500 15013KT P6SM SCT060
     FM221900 16013KT P6SM BKN050
     FM230000 15010KT P6SM BKN040=



000
FTUS43 KDMX 220520
TAFDSM
TAF
KDSM 220520Z 2206/2306 14009KT P6SM SCT050
     FM221000 14011KT P6SM BKN050
     FM230000 15009KT P6SM BKN040
     FM230500 15009KT 6SM -SHRA OVC030=



000
FTUS43 KDMX 220520
TAFFOD
TAF
KFOD 220520Z 2206/2306 13007KT P6SM SKC
     FM221100 15011KT 6SM BR BKN050
     FM221500 16015G21KT P6SM SCT050 BKN200
     FM230000 17015KT P6SM SCT030 BKN180
     FM230300 17015KT 6SM -SHRA OVC030=



000
FTUS43 KDMX 212320
TAFOTM
TAF
KOTM 212320Z 2200/2224 11007KT P6SM SKC
     FM221100 13008KT 5SM BR FEW005
     FM221400 15011KT P6SM SKC=



000
FTUS43 KDMX 212320
TAFFOD
TAF
KFOD 212320Z 2200/2224 13007KT P6SM SKC
     FM221100 14011KT 6SM BR BKN040
     FM221500 16015G20KT P6SM SCT040 BKN150=



000
FTUS43 KDMX 212320
TAFALO
TAF
KALO 212320Z 2200/2224 12008KT P6SM SKC
     FM221000 13006KT 5SM BR FEW005
     FM221400 15013KT P6SM SCT050=



000
FTUS43 KDMX 212320
TAFMCW
TAF
KMCW 212320Z 2200/2224 13009KT P6SM SKC
     FM221400 15015KT P6SM BKN040
     FM221600 16016G21KT P6SM BKN040=



000
FTUS43 KDMX 212320
TAFDSM
TAF
KDSM 212320Z 2200/2224 11008KT P6SM SKC
     FM221300 14009KT 6SM BR BKN035
     FM221500 15012KT P6SM OVC040=



000
FTUS43 KDMX 212320
TAFDSM
TAF
KDSM 212320Z 2200/2224 11008KT P6SM SKC
     FM221300 14009KT 6SM BR BKN035
     FM221500 15012KT P6SM OVC040=



000
FTUS43 KDMX 212320
TAFMCW
TAF
KMCW 212320Z 2200/2224 13009KT P6SM SKC
     FM221400 15015KT P6SM BKN040
     FM221600 16016G21KT P6SM BKN040=



000
FTUS43 KDMX 212320
TAFALO
TAF
KALO 212320Z 2200/2224 12008KT P6SM SKC
     FM221000 13006KT 5SM BR FEW005
     FM221400 15013KT P6SM SCT050=



000
FTUS43 KDMX 212320
TAFOTM
TAF
KOTM 212320Z 2200/2224 11007KT P6SM SKC
     FM221100 13008KT 5SM BR FEW005
     FM221400 15011KT P6SM SKC=



000
FTUS43 KDMX 212320
TAFFOD
TAF
KFOD 212320Z 2200/2224 13007KT P6SM SKC
     FM221100 14011KT 6SM BR BKN040
     FM221500 16015G20KT P6SM SCT040 BKN150=



    US Dept of Commerce
    National Oceanic and Atmospheric Administration
    National Weather Service
    1325 East West Highway
    Silver Spring, MD 20910
    Page Author: NWS Internet Services Team
Disclaimer
Information Quality
Credits
Glossary
Privacy Policy
Freedom of Information Act (FOIA)
About Us
Career Opportunities